createdAt,value
2022-11-09T00:00:47.398Z,100355.53
2022-11-09T00:05:55.970Z,100367.59
2022-11-09T00:11:05.286Z,100368.59
2022-11-09T00:16:09.976Z,100345.59
2022-11-09T00:21:14.306Z,100335.34
2022-11-09T00:26:19.492Z,100333.38
2022-11-09T00:31:23.951Z,100325.09
2022-11-09T00:36:28.428Z,100332.53
2022-11-09T00:41:32.319Z,100328.91
2022-11-09T00:46:35.041Z,100335.09
2022-11-09T00:51:37.738Z,100343.91
2022-11-09T00:56:41.763Z,100344.97
2022-11-09T01:01:44.844Z,100345.97
2022-11-09T01:06:47.589Z,100335.03
2022-11-09T01:11:51.735Z,100329.00
2022-11-09T01:16:58.099Z,100353.66
2022-11-09T01:22:02.245Z,100355.31
2022-11-09T01:27:06.523Z,100359.69
2022-11-09T01:32:09.076Z,100357.72
2022-11-09T01:37:11.799Z,100336.09
2022-11-09T01:42:15.773Z,100336.34
2022-11-09T01:47:24.163Z,100366.69
2022-11-09T01:52:31.392Z,100368.09
2022-11-09T01:57:39.377Z,100367.97
2022-11-09T02:02:47.345Z,100366.41
2022-11-09T02:07:52.243Z,100351.13
2022-11-09T02:13:00.639Z,100259.00
2022-11-09T02:18:04.865Z,100351.34
2022-11-09T02:23:10.322Z,100346.31
2022-11-09T02:28:13.496Z,100350.91
2022-11-09T02:33:16.601Z,100348.09
2022-11-09T02:38:21.935Z,100354.81
2022-11-09T02:43:24.704Z,100345.31
2022-11-09T02:48:27.402Z,100354.09
2022-11-09T02:53:34.668Z,100363.47
2022-11-09T02:58:37.602Z,100362.66
2022-11-09T03:03:40.712Z,100362.38
2022-11-09T03:08:44.694Z,100372.50
2022-11-09T03:13:47.383Z,100377.25
2022-11-09T03:18:50.936Z,100380.94
2022-11-09T03:23:55.365Z,100377.84
2022-11-09T03:28:59.670Z,100382.66
2022-11-09T03:34:02.601Z,100394.41
2022-11-09T03:39:07.219Z,100382.94
2022-11-09T03:44:09.916Z,100397.94
2022-11-09T03:49:12.467Z,100405.91
2022-11-09T03:54:16.806Z,100373.78
2022-11-09T03:59:19.363Z,100392.03
2022-11-09T04:04:21.915Z,100395.25
2022-11-09T04:09:25.840Z,100390.81
2022-11-09T04:14:28.405Z,100387.28
2022-11-09T04:19:31.022Z,100304.31
2022-11-09T04:24:35.129Z,100404.00
2022-11-09T04:29:38.003Z,100425.84
2022-11-09T04:34:41.227Z,100441.59
2022-11-09T04:39:45.107Z,100447.91
2022-11-09T04:44:48.038Z,100450.22
2022-11-09T04:49:50.556Z,100451.59
2022-11-09T04:54:54.449Z,100456.63
2022-11-09T04:59:57.143Z,100459.97
2022-11-09T05:04:59.786Z,100441.72
2022-11-09T05:10:03.671Z,100432.16
2022-11-09T05:15:07.155Z,100421.41
2022-11-09T05:20:10.865Z,100427.13
2022-11-09T05:25:14.899Z,100427.72
2022-11-09T05:30:17.487Z,100421.81
2022-11-09T05:35:20.584Z,100420.69
2022-11-09T05:40:25.316Z,100433.63
2022-11-09T05:45:44.052Z,100438.25
2022-11-09T05:50:47.642Z,100433.47
2022-11-09T05:56:05.418Z,100433.34
2022-11-09T06:01:10.438Z,100433.84
2022-11-09T06:06:14.834Z,100440.13
2022-11-09T06:11:23.898Z,100443.06
2022-11-09T06:16:27.187Z,100440.41
2022-11-09T06:21:30.014Z,100442.31
2022-11-09T06:26:34.151Z,100449.91
2022-11-09T06:31:36.723Z,100454.84
2022-11-09T06:36:39.254Z,100450.09
2022-11-09T06:41:47.396Z,100450.47
2022-11-09T06:46:50.601Z,100457.28
2022-11-09T06:51:53.331Z,100458.53
2022-11-09T06:56:57.285Z,100458.69
2022-11-09T07:02:01.619Z,100470.28
2022-11-09T07:07:04.835Z,100476.69
2022-11-09T07:12:09.759Z,100477.94
2022-11-09T07:17:12.257Z,100490.31
2022-11-09T07:22:14.857Z,100491.88
2022-11-09T07:27:21.392Z,100493.75
2022-11-09T07:32:47.008Z,100498.63
2022-11-09T07:37:50.047Z,100504.72
2022-11-09T07:42:54.718Z,100507.00
2022-11-09T07:47:58.254Z,100516.19
2022-11-09T07:53:02.397Z,100530.41
2022-11-09T07:58:07.891Z,100527.94
2022-11-09T08:03:10.510Z,100533.63
2022-11-09T08:08:15.466Z,100530.34
2022-11-09T08:13:20.779Z,100531.19
2022-11-09T08:18:24.395Z,100533.13
2022-11-09T08:23:27.038Z,100536.88
2022-11-09T08:28:30.894Z,100547.09
2022-11-09T08:33:36.145Z,100548.78
2022-11-09T08:38:38.768Z,100542.63
2022-11-09T08:43:42.675Z,100546.44
2022-11-09T08:48:45.232Z,100505.44
2022-11-09T08:53:47.819Z,100563.38
2022-11-09T08:58:51.747Z,100562.06
2022-11-09T09:03:54.266Z,100561.09
2022-11-09T09:08:56.795Z,100566.50
2022-11-09T09:14:00.695Z,100558.84
2022-11-09T09:19:03.263Z,100563.06
2022-11-09T09:24:06.195Z,100561.97
2022-11-09T09:29:11.645Z,100569.31
2022-11-09T09:34:14.217Z,100462.88
2022-11-09T09:39:16.943Z,100570.53
2022-11-09T09:44:30.358Z,100590.06
2022-11-09T09:49:37.830Z,100587.53
2022-11-09T09:54:42.972Z,100578.91
2022-11-09T09:59:50.465Z,100605.09
2022-11-09T10:04:56.107Z,100612.69
2022-11-09T10:10:17.302Z,100611.56
2022-11-09T10:15:28.035Z,100609.66
2022-11-09T10:20:46.192Z,100613.25
2022-11-09T10:26:04.617Z,100612.59
2022-11-09T10:31:16.265Z,100609.41
2022-11-09T10:36:25.978Z,100614.69
2022-11-09T10:41:32.907Z,100611.91
2022-11-09T10:47:07.828Z,100603.06
2022-11-09T10:52:44.213Z,100605.72
2022-11-09T10:58:23.645Z,100611.50
2022-11-09T11:03:50.894Z,100601.44
2022-11-09T11:09:17.553Z,100610.97
2022-11-09T11:14:44.559Z,100607.88
2022-11-09T11:20:29.537Z,100616.94
2022-11-09T11:26:13.788Z,100559.91
2022-11-09T11:31:35.575Z,100618.25
2022-11-09T11:37:14.440Z,100613.34
2022-11-09T11:43:12.330Z,100616.41
2022-11-09T11:48:58.707Z,100625.09
2022-11-09T11:54:27.776Z,100620.88
2022-11-09T12:00:04.959Z,100625.91
2022-11-09T12:05:44.596Z,100634.50
2022-11-09T12:11:13.446Z,100624.75
2022-11-09T12:16:40.309Z,100637.53
2022-11-09T12:22:07.798Z,100649.13
2022-11-09T12:27:46.222Z,100639.00
2022-11-09T12:33:13.418Z,100631.16
2022-11-09T12:38:40.184Z,100643.53
2022-11-09T12:44:06.044Z,100642.84
2022-11-09T12:49:35.291Z,100648.34
2022-11-09T12:54:58.344Z,100649.06
2022-11-09T13:00:54.173Z,100656.63
2022-11-09T13:06:18.238Z,100646.97
2022-11-09T13:11:41.248Z,100643.03
2022-11-09T13:17:42.103Z,100643.84
2022-11-09T13:23:07.511Z,100653.06
2022-11-09T13:29:08.122Z,100657.31
2022-11-09T13:34:45.868Z,100669.75
2022-11-09T13:40:40.422Z,100670.59
2022-11-09T13:46:05.302Z,100679.72
2022-11-09T13:51:42.592Z,100681.94
2022-11-09T13:57:07.248Z,100693.25
2022-11-09T14:02:28.593Z,100699.69
2022-11-09T14:07:51.210Z,100709.16
2022-11-09T14:13:47.701Z,100716.28
2022-11-09T14:19:19.595Z,100720.19
2022-11-09T14:24:42.350Z,100728.06
2022-11-09T14:30:03.562Z,100730.09
2022-11-09T14:35:28.329Z,100705.13
2022-11-09T14:40:53.014Z,100730.13
2022-11-09T14:46:18.375Z,100726.34
2022-11-09T14:51:41.594Z,100741.19
2022-11-09T14:57:04.643Z,100746.66
2022-11-09T15:02:26.359Z,100757.72
2022-11-09T15:07:48.866Z,100772.50
2022-11-09T15:13:11.569Z,100772.03
2022-11-09T15:18:37.422Z,100792.03
2022-11-09T15:24:12.698Z,100784.94
2022-11-09T15:29:40.617Z,100793.31
2022-11-09T15:35:01.971Z,100794.91
2022-11-09T15:40:25.916Z,100806.06
2022-11-09T15:45:48.870Z,100807.88
2022-11-09T15:51:10.352Z,100810.44
2022-11-09T15:56:32.101Z,100711.28
2022-11-09T16:01:55.095Z,100812.97
2022-11-09T16:07:17.273Z,100823.97
2022-11-09T16:12:42.447Z,100835.84
2022-11-09T16:18:07.925Z,100836.56
2022-11-09T16:23:30.842Z,100855.03
2022-11-09T16:28:52.309Z,100863.50
2022-11-09T16:34:15.973Z,100880.91
2022-11-09T16:39:37.817Z,100879.78
2022-11-09T16:45:05.468Z,100877.72
2022-11-09T16:50:28.131Z,100888.38
2022-11-09T16:55:49.342Z,100891.72
2022-11-09T17:07:58.908Z,100911.03
2022-11-09T17:13:20.578Z,100926.34
2022-11-09T17:18:42.739Z,100918.63
2022-11-09T17:24:06.295Z,100941.81
2022-11-09T17:29:27.478Z,100946.13
2022-11-09T17:34:50.172Z,100953.53
2022-11-09T17:40:13.130Z,100970.34
2022-11-09T17:45:38.821Z,100969.09
2022-11-09T17:51:00.903Z,100979.63
2022-11-09T17:56:23.339Z,100988.66
2022-11-09T18:01:44.634Z,101006.59
2022-11-09T18:07:05.832Z,101022.03
2022-11-09T18:12:28.894Z,101036.13
2022-11-09T18:17:50.106Z,101038.88
2022-11-09T18:23:11.189Z,101034.53
2022-11-09T18:28:34.303Z,101050.09
2022-11-09T18:33:55.628Z,101049.88
2022-11-09T18:39:17.637Z,101016.84
2022-11-09T18:44:40.340Z,101069.19
2022-11-09T18:50:01.383Z,101073.75
2022-11-09T18:55:22.534Z,101085.22
2022-11-09T19:00:46.067Z,101084.34
2022-11-09T19:06:09.296Z,101065.78
2022-11-09T19:11:31.036Z,101102.41
2022-11-09T19:16:53.975Z,101109.31
2022-11-09T19:22:18.972Z,101114.78
2022-11-09T19:27:41.261Z,101120.31
2022-11-09T19:33:04.318Z,101123.69
2022-11-09T19:38:25.674Z,101133.13
2022-11-09T19:43:50.028Z,101143.84
2022-11-09T19:49:12.727Z,101143.84
2022-11-09T19:54:33.828Z,101154.16
2022-11-09T19:59:54.935Z,101158.72
2022-11-09T20:05:17.611Z,101176.25
2022-11-09T20:10:38.993Z,101161.34
2022-11-09T20:16:04.169Z,101181.28
2022-11-09T20:21:27.523Z,101191.25
2022-11-09T20:26:49.103Z,101218.53
2022-11-09T20:32:12.370Z,101224.09
2022-11-09T20:37:36.095Z,101221.13
2022-11-09T20:42:57.908Z,101229.84
2022-11-09T20:48:46.554Z,101245.47
2022-11-09T20:54:06.921Z,101253.22
2022-11-09T20:59:28.831Z,101248.81
2022-11-09T21:04:50.189Z,101271.66
2022-11-09T21:10:12.558Z,101280.38
2022-11-09T21:15:33.564Z,101278.56
2022-11-09T21:20:55.122Z,101273.00
2022-11-09T21:26:35.508Z,101268.84
2022-11-09T21:31:56.933Z,101275.75
2022-11-09T21:37:18.215Z,101286.38
2022-11-09T21:42:40.642Z,101283.66
2022-11-09T21:48:02.429Z,101283.06
2022-11-09T21:53:24.395Z,101304.28
2022-11-09T21:58:48.447Z,101299.84
2022-11-09T22:04:10.342Z,101313.59
2022-11-09T22:09:50.651Z,101315.63
2022-11-09T22:15:31.373Z,101321.34
2022-11-09T22:20:55.801Z,101312.63
2022-11-09T22:26:17.876Z,101288.78
2022-11-09T22:31:40.159Z,101320.28
2022-11-09T22:37:03.610Z,101335.28
2022-11-09T22:42:24.716Z,101337.06
2022-11-09T22:47:47.128Z,101341.25
2022-11-09T22:53:08.451Z,101346.94
2022-11-09T22:58:30.087Z,101363.03
2022-11-09T23:03:53.426Z,101374.56
2022-11-09T23:09:14.772Z,101379.31
2022-11-09T23:14:53.783Z,101394.47
2022-11-09T23:20:16.997Z,101398.63
2022-11-09T23:25:56.862Z,101405.72
2022-11-09T23:31:23.900Z,101396.91
2022-11-09T23:36:46.769Z,101420.91
2022-11-09T23:42:07.869Z,101430.16
2022-11-09T23:47:29.112Z,101433.63
2022-11-09T23:52:51.446Z,101440.94
2022-11-09T23:58:12.992Z,101441.03
